createdAt,value
2022-10-25T00:03:14.144Z,19.6
2022-10-25T00:08:14.163Z,19.6
2022-10-25T00:13:14.173Z,19.6
2022-10-25T00:18:14.185Z,19.6
2022-10-25T00:23:14.258Z,19.6
2022-10-25T00:28:14.251Z,19.6
2022-10-25T00:33:14.314Z,19.6
2022-10-25T00:38:14.348Z,19.6
2022-10-25T00:43:14.363Z,19.6
2022-10-25T00:48:14.452Z,19.6
2022-10-25T00:53:14.479Z,19.6
2022-10-25T00:58:14.460Z,19.6
2022-10-25T01:03:14.514Z,19.6
2022-10-25T01:08:14.577Z,19.6
2022-10-25T01:13:14.700Z,19.6
2022-10-25T01:18:14.631Z,19.6
2022-10-25T01:23:14.676Z,19.6
2022-10-25T01:28:14.743Z,19.6
2022-10-25T01:33:14.761Z,19.6
2022-10-25T01:38:14.749Z,19.6
2022-10-25T01:43:14.674Z,19.6
2022-10-25T01:48:14.660Z,19.6
2022-10-25T01:53:14.691Z,19.6
2022-10-25T01:58:14.662Z,19.6
2022-10-25T02:03:14.666Z,19.6
2022-10-25T02:08:14.665Z,19.6
2022-10-25T02:13:14.681Z,19.6
2022-10-25T02:18:14.669Z,19.6
2022-10-25T02:23:14.988Z,19.6
2022-10-25T02:28:14.665Z,19.6
2022-10-25T02:33:14.695Z,19.6
2022-10-25T02:38:14.670Z,19.6
2022-10-25T02:43:14.656Z,19.6
2022-10-25T02:48:14.668Z,19.6
2022-10-25T02:53:14.685Z,19.6
2022-10-25T02:58:14.662Z,19.6
2022-10-25T03:03:14.645Z,19.6
2022-10-25T03:08:14.654Z,19.6
2022-10-25T03:13:14.682Z,19.6
2022-10-25T03:18:14.659Z,19.6
2022-10-25T03:23:14.652Z,19.6
2022-10-25T03:28:14.650Z,19.6
2022-10-25T03:33:14.671Z,19.6
2022-10-25T03:38:14.666Z,19.6
2022-10-25T03:43:14.716Z,19.6
2022-10-25T03:48:14.647Z,19.6
2022-10-25T03:53:14.843Z,19.6
2022-10-25T03:58:14.650Z,19.6
2022-10-25T04:03:14.642Z,19.6
2022-10-25T04:08:14.636Z,19.6
2022-10-25T04:13:14.659Z,19.6
2022-10-25T04:18:14.645Z,19.6
2022-10-25T04:23:14.647Z,19.6
2022-10-25T04:28:14.642Z,19.6
2022-10-25T04:33:14.665Z,19.6
2022-10-25T04:38:14.641Z,19.6
2022-10-25T04:43:14.647Z,19.6
2022-10-25T04:48:14.638Z,19.6
2022-10-25T04:53:14.709Z,19.6
2022-10-25T04:58:14.632Z,19.6
2022-10-25T05:03:14.676Z,19.6
2022-10-25T05:08:14.634Z,19.6
2022-10-25T05:13:14.899Z,19.6
2022-10-25T05:18:14.644Z,19.6
2022-10-25T05:23:14.633Z,19.6
2022-10-25T05:28:14.638Z,19.6
2022-10-25T05:33:14.762Z,19.6
2022-10-25T05:38:14.641Z,19.6
2022-10-25T05:43:14.627Z,19.6
2022-10-25T05:48:14.633Z,19.6
2022-10-25T05:53:14.644Z,19.6
2022-10-25T05:58:14.622Z,19.6
2022-10-25T06:03:14.618Z,19.6
2022-10-25T06:08:14.623Z,19.6
2022-10-25T06:13:14.638Z,19.6
2022-10-25T06:18:14.618Z,19.6
2022-10-25T06:23:14.628Z,19.6
2022-10-25T06:28:14.847Z,19.6
2022-10-25T06:33:14.645Z,19.6
2022-10-25T06:38:14.615Z,19.6
2022-10-25T06:43:14.607Z,19.6
2022-10-25T06:48:14.595Z,19.6
2022-10-25T06:53:14.632Z,19.6
2022-10-25T06:58:14.612Z,19.6
2022-10-25T07:03:14.613Z,19.6
2022-10-25T07:08:14.603Z,19.6
2022-10-25T07:13:14.622Z,19.6
2022-10-25T07:18:14.614Z,19.6
2022-10-25T07:23:14.610Z,19.6
2022-10-25T07:28:14.610Z,19.6
2022-10-25T07:33:14.625Z,19.6
2022-10-25T07:38:14.613Z,19.6
2022-10-25T07:43:14.629Z,19.6
2022-10-25T07:48:14.660Z,19.6
2022-10-25T07:53:14.624Z,19.6
2022-10-25T07:58:14.591Z,19.6
2022-10-25T08:03:14.742Z,19.6
2022-10-25T08:08:14.592Z,19.6
2022-10-25T08:13:14.641Z,19.6
2022-10-25T08:18:14.815Z,19.6
2022-10-25T08:23:14.714Z,19.6
2022-10-25T08:28:14.602Z,19.6
2022-10-25T08:33:14.621Z,19.6
2022-10-25T08:38:14.613Z,19.6
2022-10-25T08:43:14.591Z,19.6
2022-10-25T08:48:14.596Z,19.6
2022-10-25T08:53:14.628Z,19.6
2022-10-25T08:58:14.598Z,19.6
2022-10-25T09:03:15.460Z,19.6
2022-10-25T09:08:14.614Z,19.6
2022-10-25T09:13:14.607Z,19.6
2022-10-25T09:18:14.584Z,19.6
2022-10-25T09:23:14.605Z,19.6
2022-10-25T09:28:14.583Z,19.6
2022-10-25T09:33:14.610Z,19.6
2022-10-25T09:38:14.587Z,19.6
2022-10-25T09:43:14.613Z,19.6
2022-10-25T09:48:14.570Z,19.6
2022-10-25T09:53:15.560Z,19.6
2022-10-25T09:58:14.577Z,19.6
2022-10-25T10:03:14.575Z,19.6
2022-10-25T10:08:14.563Z,19.6
2022-10-25T10:13:14.594Z,19.6
2022-10-25T10:18:14.584Z,19.6
2022-10-25T10:23:15.602Z,19.6
2022-10-25T10:28:14.572Z,19.6
2022-10-25T10:33:14.604Z,19.6
2022-10-25T10:38:14.600Z,19.6
2022-10-25T10:43:14.570Z,19.6
2022-10-25T10:48:14.607Z,19.6
2022-10-25T10:53:14.588Z,19.6
2022-10-25T10:58:14.607Z,19.6
2022-10-25T11:03:14.563Z,19.6
2022-10-25T11:08:14.563Z,19.6
2022-10-25T11:13:14.687Z,19.6
2022-10-25T11:18:14.568Z,19.6
2022-10-25T11:23:14.552Z,19.6
2022-10-25T11:28:14.561Z,19.6
2022-10-25T11:33:14.677Z,19.6
2022-10-25T11:38:14.567Z,19.6
2022-10-25T11:43:14.563Z,19.6
2022-10-25T11:48:14.556Z,19.6
2022-10-25T11:53:14.672Z,19.6
2022-10-25T11:58:14.550Z,19.6
2022-10-25T12:03:14.609Z,19.6
2022-10-25T12:08:14.552Z,19.6
2022-10-25T12:13:14.648Z,19.6
2022-10-25T12:18:14.547Z,19.6
2022-10-25T12:23:15.566Z,19.6
2022-10-25T12:28:14.514Z,19.6
2022-10-25T12:33:14.650Z,19.6
2022-10-25T12:38:14.520Z,19.6
2022-10-25T12:43:14.534Z,19.6
2022-10-25T12:48:14.542Z,19.6
2022-10-25T12:53:14.650Z,19.6
2022-10-25T12:58:14.529Z,19.6
2022-10-25T13:03:17.086Z,19.6
2022-10-25T13:08:14.523Z,19.6
2022-10-25T13:13:14.651Z,19.6
2022-10-25T13:18:16.743Z,19.6
2022-10-25T13:23:14.533Z,19.6
2022-10-25T13:28:14.545Z,19.6
2022-10-25T13:33:14.640Z,19.6
2022-10-25T13:38:14.527Z,19.6
2022-10-25T13:43:14.523Z,19.6
2022-10-25T13:48:14.524Z,19.6
2022-10-25T13:53:14.646Z,19.6
2022-10-25T13:58:14.518Z,19.6
2022-10-25T14:03:14.519Z,19.6
2022-10-25T14:08:14.510Z,19.6
2022-10-25T14:13:14.594Z,19.6
2022-10-25T14:18:14.558Z,19.6
2022-10-25T14:23:14.502Z,19.6
2022-10-25T14:28:14.506Z,19.6
2022-10-25T14:33:14.539Z,19.6
2022-10-25T14:38:14.509Z,19.6
2022-10-25T14:43:14.579Z,19.6
2022-10-25T14:48:14.499Z,19.6
2022-10-25T14:53:14.538Z,19.6
2022-10-25T14:58:14.497Z,19.6
2022-10-25T15:03:14.515Z,19.6
2022-10-25T15:08:14.507Z,19.6
2022-10-25T15:13:14.522Z,19.6
2022-10-25T15:18:14.507Z,19.6
2022-10-25T15:23:14.510Z,19.6
2022-10-25T15:28:14.502Z,19.6
2022-10-25T15:33:14.531Z,19.6
2022-10-25T15:38:14.687Z,19.6
2022-10-25T15:43:14.494Z,19.6
2022-10-25T15:48:14.537Z,19.6
2022-10-25T15:53:14.494Z,19.6
2022-10-25T15:58:14.484Z,19.6
2022-10-25T16:03:14.488Z,19.6
2022-10-25T16:08:14.484Z,19.6
2022-10-25T16:13:14.579Z,19.6
2022-10-25T16:18:14.537Z,19.6
2022-10-25T16:23:14.497Z,19.6
2022-10-25T16:28:14.659Z,19.6
2022-10-25T16:33:14.595Z,19.6
2022-10-25T16:38:14.515Z,19.6
2022-10-25T16:43:14.469Z,19.6
2022-10-25T16:48:14.504Z,19.6
2022-10-25T16:53:14.812Z,19.6
2022-10-25T16:58:14.512Z,19.6
2022-10-25T17:03:14.485Z,19.6
2022-10-25T17:08:14.490Z,19.6
2022-10-25T17:13:14.511Z,14.5
2022-10-25T17:18:15.310Z,14.7
2022-10-25T17:23:14.464Z,15.3
2022-10-25T17:28:14.475Z,16.5
2022-10-25T17:33:14.492Z,17.9
2022-10-25T17:38:14.482Z,19
2022-10-25T17:43:14.471Z,19.8
2022-10-25T17:48:14.536Z,20.1
2022-10-25T17:53:14.517Z,20.5
2022-10-25T17:58:14.480Z,21.1
2022-10-25T18:03:14.479Z,22
2022-10-25T18:08:14.469Z,22.4
2022-10-25T18:13:14.486Z,22.5
2022-10-25T18:18:14.475Z,22.4
2022-10-25T18:23:14.477Z,22.4
2022-10-25T18:28:14.474Z,22.4
2022-10-25T18:33:14.552Z,22.3
2022-10-25T18:38:15.756Z,21.1
2022-10-25T18:43:14.473Z,20
2022-10-25T18:48:14.477Z,19.3
2022-10-25T18:53:14.484Z,18.7
2022-10-25T18:58:14.482Z,18.2
2022-10-25T19:03:14.461Z,17.8
2022-10-25T19:08:14.468Z,17.5
2022-10-25T19:13:14.749Z,17.3
2022-10-25T19:18:14.465Z,17.2
2022-10-25T19:23:14.455Z,16.9
2022-10-25T19:28:14.463Z,16.8
2022-10-25T19:33:14.480Z,16.7
2022-10-25T19:38:14.503Z,16.5
2022-10-25T19:43:14.446Z,16.4
2022-10-25T19:48:14.463Z,16.3
2022-10-25T19:53:14.464Z,16.2
2022-10-25T19:58:14.433Z,16.1
2022-10-25T20:03:14.471Z,16
2022-10-25T20:08:14.458Z,16
2022-10-25T20:13:14.465Z,15.9
2022-10-25T20:18:14.455Z,15.8
2022-10-25T20:23:14.428Z,15.8
2022-10-25T20:28:14.432Z,15.7
2022-10-25T20:33:14.461Z,15.7
2022-10-25T20:38:14.432Z,15.6
2022-10-25T20:43:14.423Z,15.6
2022-10-25T20:48:14.651Z,15.5
2022-10-25T20:53:14.475Z,15.5
2022-10-25T20:58:14.591Z,15.4
2022-10-25T21:03:14.466Z,15.3
2022-10-25T21:08:14.422Z,15.3
2022-10-25T21:13:14.455Z,15.2
2022-10-25T21:18:14.452Z,15.1
2022-10-25T21:23:14.492Z,15
2022-10-25T21:28:14.418Z,15
2022-10-25T21:33:14.438Z,15
2022-10-25T21:38:14.414Z,15
2022-10-25T21:43:14.412Z,15
2022-10-25T21:48:14.424Z,15
2022-10-25T21:53:14.434Z,14.9
2022-10-25T21:58:14.409Z,14.8
2022-10-25T22:03:14.404Z,14.8
2022-10-25T22:08:14.409Z,14.8
2022-10-25T22:13:14.436Z,14.7
2022-10-25T22:18:14.412Z,14.6
2022-10-25T22:23:14.491Z,14.5
2022-10-25T22:28:14.400Z,14.4
2022-10-25T22:33:14.433Z,14.4
2022-10-25T22:38:14.425Z,14.4
2022-10-25T22:43:14.419Z,14.3
2022-10-25T22:48:14.395Z,14.2
2022-10-25T22:53:14.570Z,14.2
2022-10-25T22:58:14.398Z,14.2
2022-10-25T23:03:14.493Z,14.1
2022-10-25T23:08:14.415Z,14.1
2022-10-25T23:13:14.425Z,14
2022-10-25T23:18:14.396Z,14
2022-10-25T23:23:14.393Z,14
2022-10-25T23:28:14.392Z,13.9
2022-10-25T23:33:14.562Z,13.9
2022-10-25T23:38:14.553Z,13.9
2022-10-25T23:43:14.483Z,13.8
2022-10-25T23:48:14.393Z,13.8
2022-10-25T23:53:14.762Z,13.8
2022-10-25T23:58:14.597Z,13.8
